Flugplatz Hannover

Bericht für EDDV

vom 14.08. um 07:50 UTC

Wind 6 kt aus 220°

Sichtweite 10 km oder mehr

aufgelockert bewölkt in 3000 ft

Temperatur 24.0°C

Taupunkt 18.0°C

Luftfeuchtigkeit 69%

Luftdruck 1012 hPa

keine wesentliche Wetteränderung innerhalb den nächsten 2 Stunden zu erwarten

EDDV 140750Z 22006KT 200V260 9999 SCT030 24/18 Q1012 NOSIG

Prognose für EDDV

vom 14.08. um 05:00 UTC

Zwischen 06:00 UTC und 06:00 UTC

variable Windrichtung mit 3 kt

Sichtweite 10 km oder mehr

aufgelockert bewölkt in 4000 ft


Zwischen 06:00 UTC und 20:00 UTC zeitweise

Wind 15 kt aus 260° in Böen 25 kt

Sichtweite 3500 m

Code: TSRA

aufgebrochene Bewölkung in 4000 ft


Zwischen 06:00 und 08:00 UTC übergehend zu

Wind 5 kt aus 280°

Sichtweite 10 km oder mehr

aufgelockert bewölkt in 4000 ft


Zwischen 10:00 UTC und 19:00 UTC zeitweise mit einer Wahrscheinlichkeit von 30%

Wind 15 kt aus 300° in Böen 35 kt

Sichtweite 2000 m

Code: TSGR

aufgelockert bewölkt in 1200 ft

aufgebrochene Bewölkung in 2500 ft


Zwischen 21:00 UTC und 06:00 UTC zeitweise

Sichtweite 2000 m

Nebelschwaden


Zwischen 22:00 UTC und 05:00 UTC zeitweise mit einer Wahrscheinlichkeit von 30%

Sichtweite 600 m

Nebel

TAF EDDV 140500Z 1406/1506 VRB03KT 9999 SCT040 TEMPO 1406/1420 26015G25KT 3500 TSRA BKN040CB BECMG 1406/1408 28005KT PROB30 TEMPO 1410/1419 30015G35KT 2000 TSGR SCT012 BKN025CB TEMPO 1421/1506 2000 BCFG PROB30 TEMPO 1422/1505 0600 FG
Impressum